sensor_id;sensor_type;location;lat;lon;timestamp;temperature;humidity
86590;SHT31;77250;43.320;28.012;2024-03-22T00:00:04;6.085;77
86590;SHT31;77250;43.320;28.012;2024-03-22T00:00:24;6.08;77
86590;SHT31;77250;43.320;28.012;2024-03-22T00:00:43;6.08;77
86590;SHT31;77250;43.320;28.012;2024-03-22T00:01:02;6.08;77
86590;SHT31;77250;43.320;28.012;2024-03-22T00:01:22;6.075;77
86590;SHT31;77250;43.320;28.012;2024-03-22T00:01:41;6.075;77
86590;SHT31;77250;43.320;28.012;2024-03-22T00:02:00;6.075;77
86590;SHT31;77250;43.320;28.012;2024-03-22T00:02:19;6.075;77
86590;SHT31;77250;43.320;28.012;2024-03-22T00:02:38;6.07;76
86590;SHT31;77250;43.320;28.012;2024-03-22T00:02:58;6.07;76
86590;SHT31;77250;43.320;28.012;2024-03-22T00:03:17;6.07;77
86590;SHT31;77250;43.320;28.012;2024-03-22T00:03:36;6.07;77
86590;SHT31;77250;43.320;28.012;2024-03-22T00:03:55;6.075;77
86590;SHT31;77250;43.320;28.012;2024-03-22T00:04:14;6.075;77
86590;SHT31;77250;43.320;28.012;2024-03-22T00:04:33;6.07;76
86590;SHT31;77250;43.320;28.012;2024-03-22T00:04:53;6.065;76
86590;SHT31;77250;43.320;28.012;2024-03-22T00:05:12;6.06;76
86590;SHT31;77250;43.320;28.012;2024-03-22T00:05:31;6.06;77
86590;SHT31;77250;43.320;28.012;2024-03-22T00:05:50;6.06;77
86590;SHT31;77250;43.320;28.012;2024-03-22T00:06:09;6.065;77
86590;SHT31;77250;43.320;28.012;2024-03-22T00:06:28;6.065;77
86590;SHT31;77250;43.320;28.012;2024-03-22T00:06:47;6.065;77
86590;SHT31;77250;43.320;28.012;2024-03-22T00:07:06;6.065;77
86590;SHT31;77250;43.320;28.012;2024-03-22T00:07:25;6.07;77
86590;SHT31;77250;43.320;28.012;2024-03-22T00:07:44;6.07;77
86590;SHT31;77250;43.320;28.012;2024-03-22T00:08:04;6.065;77
86590;SHT31;77250;43.320;28.012;2024-03-22T00:08:23;6.06;77
86590;SHT31;77250;43.320;28.012;2024-03-22T00:08:42;6.06;77
86590;SHT31;77250;43.320;28.012;2024-03-22T00:09:01;6.055;77
86590;SHT31;77250;43.320;28.012;2024-03-22T00:09:20;6.06;77
86590;SHT31;77250;43.320;28.012;2024-03-22T00:09:40;6.06;77
86590;SHT31;77250;43.320;28.012;2024-03-22T00:09:59;6.06;77
86590;SHT31;77250;43.320;28.012;2024-03-22T00:10:18;6.06;77
86590;SHT31;77250;43.320;28.012;2024-03-22T00:10:37;6.06;77
86590;SHT31;77250;43.320;28.012;2024-03-22T00:10:56;6.065;77
86590;SHT31;77250;43.320;28.012;2024-03-22T00:11:15;6.06;77
86590;SHT31;77250;43.320;28.012;2024-03-22T00:11:34;6.055;76
86590;SHT31;77250;43.320;28.012;2024-03-22T00:11:55;6.05;76
86590;SHT31;77250;43.320;28.012;2024-03-22T00:12:14;6.05;77
86590;SHT31;77250;43.320;28.012;2024-03-22T00:12:33;6.05;77
86590;SHT31;77250;43.320;28.012;2024-03-22T00:12:52;6.055;77
86590;SHT31;77250;43.320;28.012;2024-03-22T00:13:11;6.05;77
86590;SHT31;77250;43.320;28.012;2024-03-22T00:13:30;6.05;77
86590;SHT31;77250;43.320;28.012;2024-03-22T00:13:50;6.05;77
86590;SHT31;77250;43.320;28.012;2024-03-22T00:14:09;6.05;77
86590;SHT31;77250;43.320;28.012;2024-03-22T00:14:28;6.05;77
86590;SHT31;77250;43.320;28.012;2024-03-22T00:14:47;6.05;77
86590;SHT31;77250;43.320;28.012;2024-03-22T00:15:07;6.05;77
86590;SHT31;77250;43.320;28.012;2024-03-22T00:15:26;6.05;77
86590;SHT31;77250;43.320;28.012;2024-03-22T00:15:45;6.05;77
86590;SHT31;77250;43.320;28.012;2024-03-22T00:16:04;6.05;77
86590;SHT31;77250;43.320;28.012;2024-03-22T00:16:24;6.05;77
86590;SHT31;77250;43.320;28.012;2024-03-22T00:16:43;6.05;77
86590;SHT31;77250;43.320;28.012;2024-03-22T00:17:02;6.05;77
86590;SHT31;77250;43.320;28.012;2024-03-22T00:17:21;6.045;77
86590;SHT31;77250;43.320;28.012;2024-03-22T00:17:40;6.05;77
86590;SHT31;77250;43.320;28.012;2024-03-22T00:17:59;6.05;77
86590;SHT31;77250;43.320;28.012;2024-03-22T00:18:19;6.05;77
86590;SHT31;77250;43.320;28.012;2024-03-22T00:18:38;6.05;77
86590;SHT31;77250;43.320;28.012;2024-03-22T00:18:57;6.05;77
86590;SHT31;77250;43.320;28.012;2024-03-22T00:19:16;6.045;77
86590;SHT31;77250;43.320;28.012;2024-03-22T00:19:35;6.045;77
86590;SHT31;77250;43.320;28.012;2024-03-22T00:19:54;6.045;77
86590;SHT31;77250;43.320;28.012;2024-03-22T00:20:13;6.04;77
86590;SHT31;77250;43.320;28.012;2024-03-22T00:20:32;6.04;77
86590;SHT31;77250;43.320;28.012;2024-03-22T00:20:51;6.035;77
86590;SHT31;77250;43.320;28.012;2024-03-22T00:21:10;6.035;77
86590;SHT31;77250;43.320;28.012;2024-03-22T00:21:29;6.035;77
86590;SHT31;77250;43.320;28.012;2024-03-22T00:21:48;6.035;77
86590;SHT31;77250;43.320;28.012;2024-03-22T00:22:07;6.035;77
86590;SHT31;77250;43.320;28.012;2024-03-22T00:22:26;6.035;77
86590;SHT31;77250;43.320;28.012;2024-03-22T00:22:45;6.035;77
86590;SHT31;77250;43.320;28.012;2024-03-22T00:23:04;6.035;77
86590;SHT31;77250;43.320;28.012;2024-03-22T00:23:23;6.035;77
86590;SHT31;77250;43.320;28.012;2024-03-22T00:23:43;6.03;77
86590;SHT31;77250;43.320;28.012;2024-03-22T00:24:02;6.03;77
86590;SHT31;77250;43.320;28.012;2024-03-22T00:24:21;6.03;77
86590;SHT31;77250;43.320;28.012;2024-03-22T00:24:40;6.03;77
86590;SHT31;77250;43.320;28.012;2024-03-22T00:24:59;6.03;77
86590;SHT31;77250;43.320;28.012;2024-03-22T00:25:18;6.025;77
86590;SHT31;77250;43.320;28.012;2024-03-22T00:25:37;6.025;77
86590;SHT31;77250;43.320;28.012;2024-03-22T00:25:57;6.025;77
86590;SHT31;77250;43.320;28.012;2024-03-22T00:26:16;6.025;77
86590;SHT31;77250;43.320;28.012;2024-03-22T00:26:35;6.025;77
86590;SHT31;77250;43.320;28.012;2024-03-22T00:26:54;6.025;77
86590;SHT31;77250;43.320;28.012;2024-03-22T00:27:13;6.025;77
86590;SHT31;77250;43.320;28.012;2024-03-22T00:27:32;6.025;77
86590;SHT31;77250;43.320;28.012;2024-03-22T00:27:51;6.03;76
86590;SHT31;77250;43.320;28.012;2024-03-22T00:28:11;6.03;76
86590;SHT31;77250;43.320;28.012;2024-03-22T00:28:30;6.03;77
86590;SHT31;77250;43.320;28.012;2024-03-22T00:28:49;6.03;77
86590;SHT31;77250;43.320;28.012;2024-03-22T00:29:08;6.03;77
86590;SHT31;77250;43.320;28.012;2024-03-22T00:29:27;6.035;77
86590;SHT31;77250;43.320;28.012;2024-03-22T00:29:46;6.035;77
86590;SHT31;77250;43.320;28.012;2024-03-22T00:30:06;6.035;77
86590;SHT31;77250;43.320;28.012;2024-03-22T00:30:25;6.03;76
86590;SHT31;77250;43.320;28.012;2024-03-22T00:30:44;6.025;76
86590;SHT31;77250;43.320;28.012;2024-03-22T00:31:03;6.025;76
86590;SHT31;77250;43.320;28.012;2024-03-22T00:31:22;6.02;77
86590;SHT31;77250;43.320;28.012;2024-03-22T00:31:41;6.02;76
86590;SHT31;77250;43.320;28.012;2024-03-22T00:32:00;6.02;76
86590;SHT31;77250;43.320;28.012;2024-03-22T00:32:20;6.02;76
86590;SHT31;77250;43.320;28.012;2024-03-22T00:32:39;6.02;76
86590;SHT31;77250;43.320;28.012;2024-03-22T00:32:58;6.02;76
86590;SHT31;77250;43.320;28.012;2024-03-22T00:33:17;6.02;77
86590;SHT31;77250;43.320;28.012;2024-03-22T00:33:36;6.015;77
86590;SHT31;77250;43.320;28.012;2024-03-22T00:33:55;6.015;77
86590;SHT31;77250;43.320;28.012;2024-03-22T00:34:14;6.02;77
86590;SHT31;77250;43.320;28.012;2024-03-22T00:34:34;6.02;77
86590;SHT31;77250;43.320;28.012;2024-03-22T00:34:53;6.02;77
86590;SHT31;77250;43.320;28.012;2024-03-22T00:35:12;6.025;77
86590;SHT31;77250;43.320;28.012;2024-03-22T00:35:31;6.025;77
86590;SHT31;77250;43.320;28.012;2024-03-22T00:35:50;6.03;77
86590;SHT31;77250;43.320;28.012;2024-03-22T00:36:09;6.03;77
86590;SHT31;77250;43.320;28.012;2024-03-22T00:36:28;6.03;77
86590;SHT31;77250;43.320;28.012;2024-03-22T00:36:47;6.03;77
86590;SHT31;77250;43.320;28.012;2024-03-22T00:37:07;6.025;77
86590;SHT31;77250;43.320;28.012;2024-03-22T00:37:26;6.025;77
86590;SHT31;77250;43.320;28.012;2024-03-22T00:37:45;6.02;77
86590;SHT31;77250;43.320;28.012;2024-03-22T00:38:04;6.02;77
86590;SHT31;77250;43.320;28.012;2024-03-22T00:38:23;6.025;78
86590;SHT31;77250;43.320;28.012;2024-03-22T00:38:42;6.025;78
86590;SHT31;77250;43.320;28.012;2024-03-22T00:39:01;6.025;77
86590;SHT31;77250;43.320;28.012;2024-03-22T00:39:20;6.03;77
86590;SHT31;77250;43.320;28.012;2024-03-22T00:39:39;6.03;77
86590;SHT31;77250;43.320;28.012;2024-03-22T00:39:59;6.03;77
86590;SHT31;77250;43.320;28.012;2024-03-22T00:40:18;6.03;77
86590;SHT31;77250;43.320;28.012;2024-03-22T00:40:37;6.03;77
86590;SHT31;77250;43.320;28.012;2024-03-22T00:40:56;6.025;77
86590;SHT31;77250;43.320;28.012;2024-03-22T00:41:15;6.025;77
86590;SHT31;77250;43.320;28.012;2024-03-22T00:41:34;6.02;77
86590;SHT31;77250;43.320;28.012;2024-03-22T00:41:53;6.02;77
86590;SHT31;77250;43.320;28.012;2024-03-22T00:42:12;6.01;77
86590;SHT31;77250;43.320;28.012;2024-03-22T00:42:31;6.0;76
86590;SHT31;77250;43.320;28.012;2024-03-22T00:42:50;6.0;77
86590;SHT31;77250;43.320;28.012;2024-03-22T00:43:09;6.0;77
86590;SHT31;77250;43.320;28.012;2024-03-22T00:43:28;6.0;77
86590;SHT31;77250;43.320;28.012;2024-03-22T00:43:47;5.995;77
86590;SHT31;77250;43.320;28.012;2024-03-22T00:44:06;5.995;77
86590;SHT31;77250;43.320;28.012;2024-03-22T00:44:25;5.99;77
86590;SHT31;77250;43.320;28.012;2024-03-22T00:44:44;5.985;77
86590;SHT31;77250;43.320;28.012;2024-03-22T00:45:03;5.985;78
86590;SHT31;77250;43.320;28.012;2024-03-22T00:45:23;5.985;77
86590;SHT31;77250;43.320;28.012;2024-03-22T00:45:42;5.985;77
86590;SHT31;77250;43.320;28.012;2024-03-22T00:46:01;5.98;77
86590;SHT31;77250;43.320;28.012;2024-03-22T00:46:20;5.97;77
86590;SHT31;77250;43.320;28.012;2024-03-22T00:46:39;5.97;77
86590;SHT31;77250;43.320;28.012;2024-03-22T00:46:58;5.965;77
86590;SHT31;77250;43.320;28.012;2024-03-22T00:47:17;5.965;77
86590;SHT31;77250;43.320;28.012;2024-03-22T00:47:36;5.96;77
86590;SHT31;77250;43.320;28.012;2024-03-22T00:47:55;5.96;77
86590;SHT31;77250;43.320;28.012;2024-03-22T00:48:15;5.96;77
86590;SHT31;77250;43.320;28.012;2024-03-22T00:48:34;5.96;77
86590;SHT31;77250;43.320;28.012;2024-03-22T00:48:53;5.96;78
86590;SHT31;77250;43.320;28.012;2024-03-22T00:49:12;5.965;78
86590;SHT31;77250;43.320;28.012;2024-03-22T00:49:31;5.965;77
86590;SHT31;77250;43.320;28.012;2024-03-22T00:49:50;5.97;77
86590;SHT31;77250;43.320;28.012;2024-03-22T00:50:09;5.97;77
86590;SHT31;77250;43.320;28.012;2024-03-22T00:50:28;5.97;77
86590;SHT31;77250;43.320;28.012;2024-03-22T00:50:47;5.965;77
86590;SHT31;77250;43.320;28.012;2024-03-22T00:51:06;5.965;77
86590;SHT31;77250;43.320;28.012;2024-03-22T00:51:25;5.965;78
86590;SHT31;77250;43.320;28.012;2024-03-22T00:51:44;5.965;77
86590;SHT31;77250;43.320;28.012;2024-03-22T00:52:03;5.96;77
86590;SHT31;77250;43.320;28.012;2024-03-22T00:52:23;5.96;77
86590;SHT31;77250;43.320;28.012;2024-03-22T00:52:42;5.955;77
86590;SHT31;77250;43.320;28.012;2024-03-22T00:53:01;5.955;77
86590;SHT31;77250;43.320;28.012;2024-03-22T00:53:20;5.955;77
86590;SHT31;77250;43.320;28.012;2024-03-22T00:53:39;5.95;77
86590;SHT31;77250;43.320;28.012;2024-03-22T00:53:58;5.95;77
86590;SHT31;77250;43.320;28.012;2024-03-22T00:54:17;5.95;77
86590;SHT31;77250;43.320;28.012;2024-03-22T00:54:36;5.945;77
86590;SHT31;77250;43.320;28.012;2024-03-22T00:54:55;5.945;77
86590;SHT31;77250;43.320;28.012;2024-03-22T00:55:14;5.94;77
86590;SHT31;77250;43.320;28.012;2024-03-22T00:55:33;5.94;77
86590;SHT31;77250;43.320;28.012;2024-03-22T00:55:53;5.935;77
86590;SHT31;77250;43.320;28.012;2024-03-22T00:56:12;5.93;77
86590;SHT31;77250;43.320;28.012;2024-03-22T00:56:31;5.93;77
86590;SHT31;77250;43.320;28.012;2024-03-22T00:56:50;5.93;77
86590;SHT31;77250;43.320;28.012;2024-03-22T00:57:09;5.93;77
86590;SHT31;77250;43.320;28.012;2024-03-22T00:57:28;5.93;77
86590;SHT31;77250;43.320;28.012;2024-03-22T00:57:47;5.93;77
86590;SHT31;77250;43.320;28.012;2024-03-22T00:58:08;5.93;77
86590;SHT31;77250;43.320;28.012;2024-03-22T00:58:27;5.93;77
86590;SHT31;77250;43.320;28.012;2024-03-22T00:58:46;5.93;78
86590;SHT31;77250;43.320;28.012;2024-03-22T00:59:05;5.93;78
86590;SHT31;77250;43.320;28.012;2024-03-22T00:59:24;5.93;77
86590;SHT31;77250;43.320;28.012;2024-03-22T00:59:43;5.925;77
86590;SHT31;77250;43.320;28.012;2024-03-22T01:00:03;5.925;77
86590;SHT31;77250;43.320;28.012;2024-03-22T01:00:22;5.92;77
86590;SHT31;77250;43.320;28.012;2024-03-22T01:00:42;5.92;77
86590;SHT31;77250;43.320;28.012;2024-03-22T01:01:01;5.915;77
86590;SHT31;77250;43.320;28.012;2024-03-22T01:01:20;5.915;77
86590;SHT31;77250;43.320;28.012;2024-03-22T01:01:39;5.915;77
86590;SHT31;77250;43.320;28.012;2024-03-22T01:01:58;5.91;77
86590;SHT31;77250;43.320;28.012;2024-03-22T01:02:17;5.905;77
86590;SHT31;77250;43.320;28.012;2024-03-22T01:02:36;5.9;77
86590;SHT31;77250;43.320;28.012;2024-03-22T01:02:55;5.895;77
86590;SHT31;77250;43.320;28.012;2024-03-22T01:03:14;5.895;77
86590;SHT31;77250;43.320;28.012;2024-03-22T01:03:33;5.89;77
86590;SHT31;77250;43.320;28.012;2024-03-22T01:03:52;5.89;77
86590;SHT31;77250;43.320;28.012;2024-03-22T01:04:11;5.89;77
86590;SHT31;77250;43.320;28.012;2024-03-22T01:04:30;5.89;77
86590;SHT31;77250;43.320;28.012;2024-03-22T01:04:49;5.89;77
86590;SHT31;77250;43.320;28.012;2024-03-22T01:05:09;5.885;77
86590;SHT31;77250;43.320;28.012;2024-03-22T01:05:28;5.885;77
86590;SHT31;77250;43.320;28.012;2024-03-22T01:05:47;5.885;77
86590;SHT31;77250;43.320;28.012;2024-03-22T01:06:06;5.89;77
86590;SHT31;77250;43.320;28.012;2024-03-22T01:06:25;5.89;77
86590;SHT31;77250;43.320;28.012;2024-03-22T01:06:44;5.895;77
86590;SHT31;77250;43.320;28.012;2024-03-22T01:07:03;5.9;77
86590;SHT31;77250;43.320;28.012;2024-03-22T01:07:22;5.905;77
86590;SHT31;77250;43.320;28.012;2024-03-22T01:07:41;5.905;77
86590;SHT31;77250;43.320;28.012;2024-03-22T01:08:00;5.91;76
86590;SHT31;77250;43.320;28.012;2024-03-22T01:08:20;5.91;77
86590;SHT31;77250;43.320;28.012;2024-03-22T01:08:39;5.91;77
86590;SHT31;77250;43.320;28.012;2024-03-22T01:08:57;5.91;77
86590;SHT31;77250;43.320;28.012;2024-03-22T01:09:17;5.915;77
86590;SHT31;77250;43.320;28.012;2024-03-22T01:09:36;5.92;77
86590;SHT31;77250;43.320;28.012;2024-03-22T01:09:55;5.92;77
86590;SHT31;77250;43.320;28.012;2024-03-22T01:10:14;5.92;77
86590;SHT31;77250;43.320;28.012;2024-03-22T01:10:33;5.92;77
86590;SHT31;77250;43.320;28.012;2024-03-22T01:10:52;5.92;77
86590;SHT31;77250;43.320;28.012;2024-03-22T01:11:11;5.92;77
86590;SHT31;77250;43.320;28.012;2024-03-22T01:11:31;5.92;77
86590;SHT31;77250;43.320;28.012;2024-03-22T01:11:49;5.915;77
86590;SHT31;77250;43.320;28.012;2024-03-22T01:12:08;5.91;77
86590;SHT31;77250;43.320;28.012;2024-03-22T01:12:28;5.91;77
86590;SHT31;77250;43.320;28.012;2024-03-22T01:12:47;5.91;77
86590;SHT31;77250;43.320;28.012;2024-03-22T01:13:06;5.91;77
86590;SHT31;77250;43.320;28.012;2024-03-22T01:13:25;5.91;77
86590;SHT31;77250;43.320;28.012;2024-03-22T01:13:44;5.91;77
86590;SHT31;77250;43.320;28.012;2024-03-22T01:14:03;5.915;77
86590;SHT31;77250;43.320;28.012;2024-03-22T01:14:22;5.915;77
86590;SHT31;77250;43.320;28.012;2024-03-22T01:14:42;5.915;77
86590;SHT31;77250;43.320;28.012;2024-03-22T01:15:00;5.92;77
86590;SHT31;77250;43.320;28.012;2024-03-22T01:15:20;5.92;78
86590;SHT31;77250;43.320;28.012;2024-03-22T01:15:39;5.925;77
86590;SHT31;77250;43.320;28.012;2024-03-22T01:15:58;5.925;77
86590;SHT31;77250;43.320;28.012;2024-03-22T01:16:17;5.93;77
86590;SHT31;77250;43.320;28.012;2024-03-22T01:16:36;5.93;77
86590;SHT31;77250;43.320;28.012;2024-03-22T01:16:55;5.93;77
86590;SHT31;77250;43.320;28.012;2024-03-22T01:17:14;5.93;77
86590;SHT31;77250;43.320;28.012;2024-03-22T01:17:33;5.93;77
86590;SHT31;77250;43.320;28.012;2024-03-22T01:17:53;5.93;77
86590;SHT31;77250;43.320;28.012;2024-03-22T01:18:12;5.925;77
86590;SHT31;77250;43.320;28.012;2024-03-22T01:18:32;5.92;77
86590;SHT31;77250;43.320;28.012;2024-03-22T01:18:51;5.92;77
86590;SHT31;77250;43.320;28.012;2024-03-22T01:19:10;5.92;77
86590;SHT31;77250;43.320;28.012;2024-03-22T01:19:29;5.92;77
86590;SHT31;77250;43.320;28.012;2024-03-22T01:19:49;5.915;77
86590;SHT31;77250;43.320;28.012;2024-03-22T01:20:09;5.905;77
86590;SHT31;77250;43.320;28.012;2024-03-22T01:20:28;5.9;77
86590;SHT31;77250;43.320;28.012;2024-03-22T01:20:47;5.895;77
86590;SHT31;77250;43.320;28.012;2024-03-22T01:21:06;5.89;77
86590;SHT31;77250;43.320;28.012;2024-03-22T01:21:25;5.885;77
86590;SHT31;77250;43.320;28.012;2024-03-22T01:21:44;5.885;77
86590;SHT31;77250;43.320;28.012;2024-03-22T01:22:03;5.88;77
86590;SHT31;77250;43.320;28.012;2024-03-22T01:22:23;5.88;77
86590;SHT31;77250;43.320;28.012;2024-03-22T01:22:42;5.88;77
86590;SHT31;77250;43.320;28.012;2024-03-22T01:23:01;5.88;77
86590;SHT31;77250;43.320;28.012;2024-03-22T01:23:20;5.875;77
86590;SHT31;77250;43.320;28.012;2024-03-22T01:23:39;5.88;77
86590;SHT31;77250;43.320;28.012;2024-03-22T01:23:58;5.875;77
86590;SHT31;77250;43.320;28.012;2024-03-22T01:24:17;5.88;77
86590;SHT31;77250;43.320;28.012;2024-03-22T01:24:36;5.88;77
86590;SHT31;77250;43.320;28.012;2024-03-22T01:24:55;5.88;77
86590;SHT31;77250;43.320;28.012;2024-03-22T01:25:14;5.88;77
86590;SHT31;77250;43.320;28.012;2024-03-22T01:25:33;5.875;77
86590;SHT31;77250;43.320;28.012;2024-03-22T01:25:52;5.875;77
86590;SHT31;77250;43.320;28.012;2024-03-22T01:26:11;5.875;77
86590;SHT31;77250;43.320;28.012;2024-03-22T01:26:30;5.875;77
86590;SHT31;77250;43.320;28.012;2024-03-22T01:26:49;5.88;77
86590;SHT31;77250;43.320;28.012;2024-03-22T01:27:08;5.88;77
86590;SHT31;77250;43.320;28.012;2024-03-22T01:27:27;5.88;77
86590;SHT31;77250;43.320;28.012;2024-03-22T01:27:46;5.88;77
86590;SHT31;77250;43.320;28.012;2024-03-22T01:28:05;5.88;77
86590;SHT31;77250;43.320;28.012;2024-03-22T01:28:24;5.885;77
86590;SHT31;77250;43.320;28.012;2024-03-22T01:28:43;5.885;77
86590;SHT31;77250;43.320;28.012;2024-03-22T01:29:03;5.885;77
86590;SHT31;77250;43.320;28.012;2024-03-22T01:29:22;5.885;77
86590;SHT31;77250;43.320;28.012;2024-03-22T01:29:41;5.885;77
86590;SHT31;77250;43.320;28.012;2024-03-22T01:30:00;5.885;77
86590;SHT31;77250;43.320;28.012;2024-03-22T01:30:20;5.89;77
86590;SHT31;77250;43.320;28.012;2024-03-22T01:30:39;5.885;77
86590;SHT31;77250;43.320;28.012;2024-03-22T01:30:59;5.885;77
86590;SHT31;77250;43.320;28.012;2024-03-22T01:31:17;5.885;77
86590;SHT31;77250;43.320;28.012;2024-03-22T01:31:36;5.89;77
86590;SHT31;77250;43.320;28.012;2024-03-22T01:31:55;5.89;77
86590;SHT31;77250;43.320;28.012;2024-03-22T01:32:15;5.885;77
86590;SHT31;77250;43.320;28.012;2024-03-22T01:32:34;5.885;77
86590;SHT31;77250;43.320;28.012;2024-03-22T01:32:54;5.885;77
86590;SHT31;77250;43.320;28.012;2024-03-22T01:33:13;5.88;77
86590;SHT31;77250;43.320;28.012;2024-03-22T01:33:32;5.88;77
86590;SHT31;77250;43.320;28.012;2024-03-22T01:33:51;5.875;77
86590;SHT31;77250;43.320;28.012;2024-03-22T01:34:10;5.875;77
86590;SHT31;77250;43.320;28.012;2024-03-22T01:34:29;5.875;77
86590;SHT31;77250;43.320;28.012;2024-03-22T01:34:48;5.875;77
86590;SHT31;77250;43.320;28.012;2024-03-22T01:35:07;5.875;77
86590;SHT31;77250;43.320;28.012;2024-03-22T01:35:26;5.875;77
86590;SHT31;77250;43.320;28.012;2024-03-22T01:35:45;5.87;77
86590;SHT31;77250;43.320;28.012;2024-03-22T01:36:05;5.87;77
86590;SHT31;77250;43.320;28.012;2024-03-22T01:36:24;5.865;77
86590;SHT31;77250;43.320;28.012;2024-03-22T01:36:43;5.865;77
86590;SHT31;77250;43.320;28.012;2024-03-22T01:37:01;5.86;77
86590;SHT31;77250;43.320;28.012;2024-03-22T01:37:21;5.86;77
86590;SHT31;77250;43.320;28.012;2024-03-22T01:37:40;5.86;77
86590;SHT31;77250;43.320;28.012;2024-03-22T01:37:59;5.86;77
86590;SHT31;77250;43.320;28.012;2024-03-22T01:38:18;5.86;77
86590;SHT31;77250;43.320;28.012;2024-03-22T01:38:37;5.855;77
86590;SHT31;77250;43.320;28.012;2024-03-22T01:38:56;5.855;77
86590;SHT31;77250;43.320;28.012;2024-03-22T01:39:15;5.855;77
86590;SHT31;77250;43.320;28.012;2024-03-22T01:39:36;5.85;77
86590;SHT31;77250;43.320;28.012;2024-03-22T01:39:55;5.85;77
86590;SHT31;77250;43.320;28.012;2024-03-22T01:40:14;5.845;77
86590;SHT31;77250;43.320;28.012;2024-03-22T01:40:33;5.845;77
86590;SHT31;77250;43.320;28.012;2024-03-22T01:40:52;5.84;77
86590;SHT31;77250;43.320;28.012;2024-03-22T01:41:11;5.83;77
86590;SHT31;77250;43.320;28.012;2024-03-22T01:41:30;5.825;77
86590;SHT31;77250;43.320;28.012;2024-03-22T01:41:50;5.82;77
86590;SHT31;77250;43.320;28.012;2024-03-22T01:42:09;5.82;77
86590;SHT31;77250;43.320;28.012;2024-03-22T01:42:28;5.82;77
86590;SHT31;77250;43.320;28.012;2024-03-22T01:42:47;5.815;78
86590;SHT31;77250;43.320;28.012;2024-03-22T01:43:09;5.815;77
86590;SHT31;77250;43.320;28.012;2024-03-22T01:43:28;5.815;77
86590;SHT31;77250;43.320;28.012;2024-03-22T01:43:49;5.805;77
86590;SHT31;77250;43.320;28.012;2024-03-22T01:44:08;5.795;77
86590;SHT31;77250;43.320;28.012;2024-03-22T01:44:27;5.79;77
86590;SHT31;77250;43.320;28.012;2024-03-22T01:44:48;5.785;78
86590;SHT31;77250;43.320;28.012;2024-03-22T01:45:08;5.78;78
86590;SHT31;77250;43.320;28.012;2024-03-22T01:45:31;5.775;78
86590;SHT31;77250;43.320;28.012;2024-03-22T01:45:50;5.775;78
86590;SHT31;77250;43.320;28.012;2024-03-22T01:46:10;5.77;77
86590;SHT31;77250;43.320;28.012;2024-03-22T01:46:29;5.755;77
86590;SHT31;77250;43.320;28.012;2024-03-22T01:46:48;5.735;77
86590;SHT31;77250;43.320;28.012;2024-03-22T01:47:07;5.715;78
86590;SHT31;77250;43.320;28.012;2024-03-22T01:47:26;5.705;78
86590;SHT31;77250;43.320;28.012;2024-03-22T01:47:46;5.695;78
86590;SHT31;77250;43.320;28.012;2024-03-22T01:48:06;5.69;78
86590;SHT31;77250;43.320;28.012;2024-03-22T01:48:26;5.69;78
86590;SHT31;77250;43.320;28.012;2024-03-22T01:48:45;5.69;78
86590;SHT31;77250;43.320;28.012;2024-03-22T01:49:04;5.685;78
86590;SHT31;77250;43.320;28.012;2024-03-22T01:49:26;5.68;78
86590;SHT31;77250;43.320;28.012;2024-03-22T01:49:47;5.665;78
86590;SHT31;77250;43.320;28.012;2024-03-22T01:50:08;5.65;78
86590;SHT31;77250;43.320;28.012;2024-03-22T01:50:27;5.64;79
86590;SHT31;77250;43.320;28.012;2024-03-22T01:50:46;5.63;79
86590;SHT31;77250;43.320;28.012;2024-03-22T01:51:06;5.625;79
86590;SHT31;77250;43.320;28.012;2024-03-22T01:51:26;5.62;79
86590;SHT31;77250;43.320;28.012;2024-03-22T01:51:45;5.615;79
86590;SHT31;77250;43.320;28.012;2024-03-22T01:52:05;5.615;79
86590;SHT31;77250;43.320;28.012;2024-03-22T01:52:24;5.615;79
86590;SHT31;77250;43.320;28.012;2024-03-22T01:52:44;5.615;79
86590;SHT31;77250;43.320;28.012;2024-03-22T01:53:03;5.61;79
86590;SHT31;77250;43.320;28.012;2024-03-22T01:53:22;5.61;79
86590;SHT31;77250;43.320;28.012;2024-03-22T01:53:42;5.61;79
86590;SHT31;77250;43.320;28.012;2024-03-22T01:54:01;5.615;79
86590;SHT31;77250;43.320;28.012;2024-03-22T01:54:24;5.615;79
86590;SHT31;77250;43.320;28.012;2024-03-22T01:54:43;5.615;79
86590;SHT31;77250;43.320;28.012;2024-03-22T01:55:02;5.62;79
86590;SHT31;77250;43.320;28.012;2024-03-22T01:55:23;5.62;79
86590;SHT31;77250;43.320;28.012;2024-03-22T01:55:44;5.625;79
86590;SHT31;77250;43.320;28.012;2024-03-22T01:56:03;5.625;79
86590;SHT31;77250;43.320;28.012;2024-03-22T01:56:23;5.63;79
86590;SHT31;77250;43.320;28.012;2024-03-22T01:56:43;5.63;80
86590;SHT31;77250;43.320;28.012;2024-03-22T01:57:03;5.635;80
86590;SHT31;77250;43.320;28.012;2024-03-22T01:57:22;5.64;80
86590;SHT31;77250;43.320;28.012;2024-03-22T01:57:42;5.65;80
86590;SHT31;77250;43.320;28.012;2024-03-22T01:58:01;5.655;80
86590;SHT31;77250;43.320;28.012;2024-03-22T01:58:20;5.66;79
86590;SHT31;77250;43.320;28.012;2024-03-22T01:58:40;5.665;80
86590;SHT31;77250;43.320;28.012;2024-03-22T01:59:00;5.67;80
86590;SHT31;77250;43.320;28.012;2024-03-22T01:59:20;5.675;80
86590;SHT31;77250;43.320;28.012;2024-03-22T01:59:40;5.68;80
86590;SHT31;77250;43.320;28.012;2024-03-22T02:00:00;5.685;80
86590;SHT31;77250;43.320;28.012;2024-03-22T02:00:20;5.69;79
86590;SHT31;77250;43.320;28.012;2024-03-22T02:00:39;5.69;80
86590;SHT31;77250;43.320;28.012;2024-03-22T02:00:58;5.695;80
86590;SHT31;77250;43.320;28.012;2024-03-22T02:01:17;5.7;80
86590;SHT31;77250;43.320;28.012;2024-03-22T02:01:36;5.705;79
86590;SHT31;77250;43.320;28.012;2024-03-22T02:01:55;5.71;79
86590;SHT31;77250;43.320;28.012;2024-03-22T02:02:15;5.715;79
86590;SHT31;77250;43.320;28.012;2024-03-22T02:02:34;5.72;79
86590;SHT31;77250;43.320;28.012;2024-03-22T02:02:53;5.725;79
86590;SHT31;77250;43.320;28.012;2024-03-22T02:03:12;5.73;79
86590;SHT31;77250;43.320;28.012;2024-03-22T02:03:31;5.735;79
86590;SHT31;77250;43.320;28.012;2024-03-22T02:03:50;5.74;79
86590;SHT31;77250;43.320;28.012;2024-03-22T02:04:09;5.745;80
86590;SHT31;77250;43.320;28.012;2024-03-22T02:04:28;5.745;80
86590;SHT31;77250;43.320;28.012;2024-03-22T02:04:50;5.75;79
86590;SHT31;77250;43.320;28.012;2024-03-22T02:05:25;5.755;79
86590;SHT31;77250;43.320;28.012;2024-03-22T02:05:44;5.76;79
86590;SHT31;77250;43.320;28.012;2024-03-22T02:06:03;5.765;79
86590;SHT31;77250;43.320;28.012;2024-03-22T02:06:23;5.77;79
86590;SHT31;77250;43.320;28.012;2024-03-22T02:06:42;5.77;79
86590;SHT31;77250;43.320;28.012;2024-03-22T02:07:02;5.775;79